Terminal Aerodrome Forecast
Issued by NWS Wilmington, NC

Home | Current Version | Previous Version | Text Only | Print | Product List | Glossary On
Versions: 1 2 3 4 5 6 7 8 9 10 11 12 13 14
000
FTUS42 KILM 152327
TAFLBT
TAF
KLBT 152327Z 1600/1624 32007KT P6SM BKN140
     FM160400 VRB02KT P6SM SCT250
     FM161700 24005KT P6SM SKC=

USA.gov is the U.S. government's official web portal to all federal, state and local government web resources and services.